createdAt,value
2023-08-24T00:16:30.943Z,315
2023-08-24T00:36:31.064Z,315
2023-08-24T00:56:31.037Z,315
2023-08-24T01:16:31.092Z,318
2023-08-24T01:56:31.098Z,315
2023-08-24T02:16:31.136Z,315
2023-08-24T02:56:31.133Z,314
2023-08-24T03:16:31.275Z,318
2023-08-24T03:36:31.173Z,320
2023-08-24T03:56:31.206Z,320
2023-08-24T04:16:31.231Z,321
2023-08-24T04:36:31.281Z,320
2023-08-24T04:56:31.277Z,324
2023-08-24T05:36:31.304Z,326
2023-08-24T05:56:31.466Z,325
2023-08-24T06:16:31.321Z,327
2023-08-24T06:36:31.382Z,330
2023-08-24T06:56:31.396Z,330
2023-08-24T07:36:31.333Z,332
2023-08-24T07:56:31.372Z,314
2023-08-24T08:16:31.410Z,310
2023-08-24T08:36:31.418Z,312
2023-08-24T08:56:31.409Z,316
2023-08-24T09:16:31.490Z,325
2023-08-24T09:36:31.477Z,320
2023-08-24T10:16:31.622Z,328
2023-08-24T10:36:31.499Z,327
2023-08-24T10:56:31.405Z,325
2023-08-24T11:16:31.527Z,331
2023-08-24T11:36:31.564Z,321
2023-08-24T12:16:31.574Z,327
2023-08-24T12:36:31.589Z,316
2023-08-24T12:56:31.634Z,316
2023-08-24T13:16:31.596Z,317
2023-08-24T13:36:31.659Z,320
2023-08-24T13:56:31.683Z,314
2023-08-24T14:16:31.744Z,318
2023-08-24T14:36:31.689Z,317
2023-08-24T14:56:31.702Z,318
2023-08-24T15:16:31.719Z,317
2023-08-24T15:36:31.614Z,315
2023-08-24T15:56:31.740Z,317
2023-08-24T16:16:31.794Z,316
2023-08-24T16:36:31.808Z,317
2023-08-24T16:56:31.803Z,321
2023-08-24T17:16:31.869Z,315
2023-08-24T17:36:31.813Z,316
2023-08-24T17:56:31.849Z,316
2023-08-24T18:16:31.864Z,316
2023-08-24T18:36:31.882Z,316
2023-08-24T18:56:31.809Z,313
2023-08-24T19:16:31.842Z,313
2023-08-24T19:36:31.941Z,304
2023-08-24T19:56:31.971Z,296
2023-08-24T20:16:31.972Z,287
2023-08-24T20:36:32.008Z,286
2023-08-24T20:56:31.915Z,292
2023-08-24T21:36:32.049Z,307
2023-08-24T21:56:32.076Z,315
2023-08-24T22:16:32.109Z,319
2023-08-24T22:36:32.102Z,321
2023-08-24T22:56:32.142Z,322
2023-08-24T23:16:32.152Z,322
2023-08-24T23:36:32.168Z,315
